Time;durP1;ratioP1;P1;durP2;ratioP2;P2;SDS_P1;SDS_P2;PMS_P1;PMS_P2;Temp;Humidity;BMP_temperature;BMP_pressure;BME280_temperature;BME280_humidity;BME280_pressure;Samples;Min_cycle;Max_cycle;Signal;HPM_P1;HPM_P2
2022/03/22 06:19:40;;;;;;;;;12.00;10.50;;;;;13.74;100.00;102533.69;6328565;22;46186;-88
2022/03/22 06:22:06;;;;;;;;;20.50;18.50;;;;;13.84;100.00;102548.34;6333814;22;45216;-87
2022/03/22 06:24:31;;;;;;;;;19.75;16.00;;;;;13.88;99.80;102549.44;6332586;22;48224;-89
2022/03/22 06:26:56;;;;;;;;;30.75;22.00;;;;;13.87;99.90;102548.53;6330480;22;49391;-89
2022/03/22 06:29:22;;;;;;;;;23.00;18.75;;;;;13.92;99.64;102547.09;6356800;22;56543;-89
2022/03/22 06:31:47;;;;;;;;;24.50;19.50;;;;;13.98;99.19;102557.13;6357410;22;45322;-89
2022/03/22 06:34:12;;;;;;;;;23.00;20.25;;;;;14.03;99.12;102557.38;6357992;22;45355;-88
2022/03/22 06:36:38;;;;;;;;;30.50;24.00;;;;;14.07;98.63;102562.94;6331701;22;53806;-90
2022/03/22 06:39:04;;;;;;;;;26.50;25.25;;;;;14.14;98.76;102566.88;6356348;22;58655;-88
2022/03/22 06:41:29;;;;;;;;;29.00;23.50;;;;;14.16;98.20;102559.94;6358156;22;45568;-88
2022/03/22 06:43:55;;;;;;;;;27.00;23.50;;;;;14.19;98.10;102568.06;6332680;22;45706;-88
2022/03/22 06:46:22;;;;;;;;;28.25;26.75;;;;;14.22;97.50;102571.69;6333875;22;45407;-88
2022/03/22 06:48:48;;;;;;;;;28.50;23.25;;;;;14.28;97.45;102575.59;6333806;22;45580;-88
2022/03/22 06:51:13;;;;;;;;;29.75;26.75;;;;;14.30;97.30;102570.44;6332055;22;45295;-87
2022/03/22 06:53:38;;;;;;;;;24.25;22.75;;;;;14.33;97.31;102570.59;6357024;22;52757;-87
2022/03/22 06:56:05;;;;;;;;;28.75;21.25;;;;;14.38;96.98;102562.97;6333695;22;45189;-88
2022/03/22 06:58:31;;;;;;;;;26.75;21.25;;;;;14.44;96.76;102572.97;6332554;22;45475;-88
2022/03/22 07:00:56;;;;;;;;;27.25;24.50;;;;;14.49;97.13;102575.06;6357602;22;45938;-91
2022/03/22 07:03:22;;;;;;;;;24.50;23.50;;;;;14.58;97.05;102576.44;6333317;22;45319;-88
2022/03/22 07:05:47;;;;;;;;;27.75;26.25;;;;;14.63;96.82;102580.25;6332106;22;45334;-88
2022/03/22 07:08:13;;;;;;;;;35.50;26.75;;;;;14.66;96.33;102576.88;6332651;22;56663;-88
2022/03/22 07:10:38;;;;;;;;;29.50;23.25;;;;;14.72;96.36;102582.50;6357661;22;45340;-88
2022/03/22 07:13:08;;;;;;;;;22.50;22.50;;;;;14.75;95.98;102577.41;6333415;22;45384;-88
2022/03/22 07:15:35;;;;;;;;;27.00;22.50;;;;;14.87;96.19;102584.25;6333351;22;45306;-88
2022/03/22 07:18:13;;;;;;;;;29.25;22.00;;;;;14.93;96.04;102580.22;6331474;22;45340;-88
2022/03/22 07:20:39;;;;;;;;;28.75;23.50;;;;;14.95;96.20;102588.22;6332359;22;45326;-88
2022/03/22 07:23:05;;;;;;;;;28.75;25.00;;;;;15.02;96.11;102584.22;6333200;22;45233;-88
2022/03/22 07:25:32;;;;;;;;;24.75;20.75;;;;;15.09;96.06;102583.72;6333610;22;45394;-88
2022/03/22 07:27:58;;;;;;;;;29.25;25.00;;;;;15.16;95.93;102583.25;6333275;22;45347;-88
2022/03/22 07:30:25;;;;;;;;;27.75;26.25;;;;;15.24;95.94;102586.31;6334506;22;45243;-88
2022/03/22 07:32:50;;;;;;;;;28.25;26.25;;;;;15.32;96.53;102586.75;6331194;22;45276;-88
2022/03/22 07:35:19;;;;;;;;;36.50;24.75;;;;;15.38;96.46;102581.81;6332197;22;61673;-88
2022/03/22 07:37:44;;;;;;;;;29.50;24.00;;;;;15.48;96.68;102584.94;6330820;22;47114;-88
2022/03/22 07:40:11;;;;;;;;;32.75;27.50;;;;;15.56;95.85;102586.28;6357020;22;45330;-88
2022/03/22 07:42:37;;;;;;;;;31.00;26.00;;;;;15.62;95.54;102589.25;6357306;22;45329;-88
2022/03/22 07:45:08;;;;;;;;;30.00;28.75;;;;;15.73;95.41;102583.63;6332780;22;45429;-88
2022/03/22 07:47:34;;;;;;;;;35.25;26.00;;;;;15.76;95.44;102591.72;6359456;22;46915;-88
2022/03/22 07:55:31;;;;;;;;;27.00;25.00;;;;;16.03;94.87;102598.44;6335593;22;45275;-88
2022/03/22 07:58:00;;;;;;;;;32.25;26.75;;;;;16.04;94.84;102595.84;6357696;22;48298;-89
2022/03/22 08:00:26;;;;;;;;;31.00;25.00;;;;;16.12;94.26;102593.63;6332679;22;45446;-89
2022/03/22 08:02:57;;;;;;;;;32.00;25.50;;;;;16.25;94.00;102596.91;6357753;22;45368;-89
2022/03/22 08:05:23;;;;;;;;;29.75;25.75;;;;;16.22;93.86;102594.09;6357178;22;45321;-89
2022/03/22 08:07:50;;;;;;;;;32.50;26.00;;;;;16.28;93.87;102598.00;6333021;22;45359;-88
2022/03/22 08:10:15;;;;;;;;;28.75;25.50;;;;;16.33;93.98;102594.66;6330488;22;45322;-88
2022/03/22 08:12:41;;;;;;;;;33.50;27.25;;;;;16.41;93.63;102604.84;6330757;22;45261;-88
2022/03/22 08:15:09;;;;;;;;;35.25;29.50;;;;;16.50;93.73;102606.09;6332390;22;45402;-88
2022/03/22 08:17:39;;;;;;;;;33.75;25.50;;;;;16.63;93.86;102605.00;6329859;22;47145;-89
2022/03/22 08:20:07;;;;;;;;;35.25;27.50;;;;;16.73;94.00;102611.66;6330177;22;45336;-89
2022/03/22 08:22:44;;;;;;;;;35.50;32.75;;;;;16.79;92.76;102611.06;6357011;22;45362;-89
2022/03/22 08:25:09;;;;;;;;;33.50;27.75;;;;;16.80;92.57;102600.50;6330419;22;45619;-89
2022/03/22 08:27:35;;;;;;;;;29.25;25.25;;;;;16.92;91.87;102618.78;6332051;22;45311;-89
2022/03/22 08:30:00;;;;;;;;;33.00;28.00;;;;;16.97;92.37;102606.66;6332373;22;45417;-88
2022/03/22 08:32:26;;;;;;;;;31.25;29.25;;;;;17.04;91.79;102610.50;6332623;22;45320;-89
2022/03/22 08:34:52;;;;;;;;;34.25;25.75;;;;;17.13;91.85;102614.44;6332201;22;45269;-89
2022/03/22 08:37:17;;;;;;;;;32.75;29.75;;;;;17.21;92.58;102610.47;6332199;22;46112;-89
2022/03/22 08:39:42;;;;;;;;;30.00;26.25;;;;;17.35;92.39;102602.22;6332203;22;46719;-89
2022/03/22 08:42:08;;;;;;;;;34.50;30.00;;;;;17.45;91.67;102599.16;6329633;22;50906;-89
2022/03/22 08:44:33;;;;;;;;;34.25;28.00;;;;;17.52;91.40;102606.56;6329845;22;45350;-88
2022/03/22 08:47:01;;;;;;;;;28.00;25.25;;;;;17.64;90.84;102608.91;6331924;22;45264;-88
2022/03/22 08:49:26;;;;;;;;;26.50;26.00;;;;;17.72;91.59;102609.25;6356928;22;45256;-88
2022/03/22 08:51:51;;;;;;;;;34.00;29.00;;;;;17.85;91.70;102604.50;6330466;22;45522;-89
2022/03/22 08:54:17;;;;;;;;;33.50;31.00;;;;;17.95;90.80;102605.81;6331980;22;47082;-88
2022/03/22 08:56:43;;;;;;;;;27.25;26.00;;;;;17.98;89.00;102611.28;6330050;22;47451;-88
2022/03/22 08:59:09;;;;;;;;;27.00;24.25;;;;;18.01;86.35;102606.09;6356021;22;50733;-94
2022/03/22 09:01:34;;;;;;;;;28.75;23.25;;;;;18.04;85.90;102603.56;6356795;22;45386;-90
2022/03/22 09:06:43;;;;;;;;;22.25;22.25;;;;;18.20;84.68;102605.19;6332221;22;45457;-93
2022/03/22 09:09:10;;;;;;;;;26.50;25.00;;;;;18.29;82.12;102603.75;6331627;22;55739;-91
2022/03/22 09:11:37;;;;;;;;;29.75;22.25;;;;;18.30;82.27;102601.16;6333594;22;45295;-91
2022/03/22 09:14:03;;;;;;;;;27.00;19.25;;;;;18.35;81.03;102600.47;6331906;22;45189;-90
2022/03/22 09:16:28;;;;;;;;;22.75;19.50;;;;;18.40;81.11;102606.91;6332008;22;46190;-90
2022/03/22 09:18:54;;;;;;;;;22.50;22.00;;;;;18.50;80.61;102594.91;6357039;22;45268;-91
2022/03/22 09:21:20;;;;;;;;;27.25;26.75;;;;;18.58;79.85;102598.75;6332088;22;45458;-90
2022/03/22 09:23:47;;;;;;;;;25.50;20.00;;;;;18.67;80.64;102600.00;6334014;22;45358;-96
2022/03/22 09:26:13;;;;;;;;;21.00;20.00;;;;;18.70;77.02;102605.44;6333665;22;47213;-96
2022/03/22 09:28:38;;;;;;;;;16.25;13.75;;;;;18.81;77.79;102616.53;6360498;22;45552;-95
2022/03/22 09:31:04;;;;;;;;;21.33;18.67;;;;;18.84;74.70;102614.88;6359885;22;45383;-94
2022/03/22 09:33:30;;;;;;;;;16.00;16.00;;;;;18.90;73.42;102610.66;6362778;22;45344;-95
2022/03/22 09:35:57;;;;;;;;;22.33;19.00;;;;;18.91;71.86;102613.41;6360630;22;47515;-96
2022/03/22 09:38:24;;;;;;;;;21.33;13.67;;;;;19.04;71.75;102622.78;6361431;22;46219;-95
2022/03/22 09:40:53;;;;;;;;;16.33;14.67;;;;;19.13;69.57;102614.25;6338485;22;45229;-96
2022/03/22 09:43:24;;;;;;;;;18.33;14.33;;;;;19.14;70.47;102610.75;6374012;22;45189;-96
2022/03/22 09:45:52;;;;;;;;;20.33;18.67;;;;;19.20;69.74;102613.69;6350249;22;47482;-95
2022/03/22 09:48:19;;;;;;;;;13.00;13.00;;;;;19.34;69.47;102602.66;6339998;22;45493;-96
2022/03/22 09:53:33;;;;;;;;;18.00;18.00;;;;;19.47;66.66;102612.03;6341008;22;45271;-96
2022/03/22 09:55:58;;;;;;;;;16.00;15.00;;;;;19.45;67.51;102602.19;6334188;22;47398;-91
2022/03/22 09:58:23;;;;;;;;;19.33;14.33;;;;;19.50;68.17;102600.59;6333385;22;45462;-92
2022/03/22 10:00:49;;;;;;;;;20.33;16.33;;;;;19.60;68.26;102615.16;6332410;22;45336;-92
2022/03/22 10:03:19;;;;;;;;;18.00;15.00;;;;;19.73;67.55;102596.13;6359558;22;45256;-93
2022/03/22 10:05:45;;;;;;;;;24.00;18.00;;;;;19.65;65.68;102601.19;6362479;22;48627;-93
2022/03/22 10:08:11;;;;;;;;;18.00;18.00;;;;;19.72;66.69;102601.38;6368256;22;45254;-96
2022/03/22 10:10:55;;;;;;;;;16.00;14.33;;;;;19.83;66.13;102604.44;6341473;22;45266;-96
2022/03/22 10:13:21;;;;;;;;;18.50;16.00;;;;;19.81;63.80;102603.50;6360958;22;45273;-92
2022/03/22 10:15:46;;;;;;;;;14.67;14.67;;;;;19.85;64.77;102600.06;6336066;22;46901;-93
2022/03/22 10:18:12;;;;;;;;;13.67;13.67;;;;;19.94;64.71;102591.53;6359603;22;45567;-93
2022/03/22 10:20:41;;;;;;;;;14.33;13.00;;;;;20.16;64.28;102611.88;6369080;22;45247;-95
2022/03/22 10:23:10;;;;;;;;;14.00;14.00;;;;;20.22;62.66;102597.84;6381781;22;44701;-96
2022/03/22 10:25:40;;;;;;;;;18.50;16.25;;;;;20.27;63.48;102598.94;6356983;22;48525;-96
2022/03/22 10:28:07;;;;;;;;;16.67;14.00;;;;;20.26;63.77;102586.44;6383471;22;44823;-95
2022/03/22 10:30:34;;;;;;;;;14.67;14.67;;;;;20.34;63.05;102591.13;6383469;22;44707;-94
2022/03/22 10:33:00;;;;;;;;;20.33;18.00;;;;;20.40;63.43;102588.69;6358963;22;45001;-95
2022/03/22 10:35:31;;;;;;;;;18.67;16.67;;;;;20.58;62.38;102587.47;6383461;22;47104;-95
2022/03/22 10:38:01;;;;;;;;;16.67;15.67;;;;;20.69;62.08;102593.16;6355635;22;45294;-96
2022/03/22 10:40:26;;;;;;;;;15.67;14.67;;;;;20.67;62.28;102594.88;6374701;22;45476;-94
2022/03/22 10:43:12;;;;;;;;;23.67;17.00;;;;;20.74;61.89;102589.81;6357884;22;45515;-96
2022/03/22 10:45:52;;;;;;;;;23.00;19.67;;;;;20.85;61.86;102595.47;6370450;22;47057;-96
2022/03/22 10:48:40;;;;;;;;;17.00;16.33;;;;;20.80;61.81;102589.06;6363280;22;45417;-95
2022/03/22 10:51:06;;;;;;;;;19.00;18.00;;;;;20.90;61.30;102584.06;6336188;22;45282;-95
2022/03/22 10:53:35;;;;;;;;;19.00;16.00;;;;;21.07;61.28;102596.19;6340813;22;45286;-95
2022/03/22 10:56:02;;;;;;;;;18.00;17.00;;;;;21.08;61.15;102586.44;6361792;22;47481;-96
2022/03/22 10:58:29;;;;;;;;;17.00;16.00;;;;;21.19;60.43;102590.31;6368881;22;45404;-95
2022/03/22 11:00:57;;;;;;;;;15.33;13.33;;;;;21.32;59.88;102588.91;6335109;22;45376;-96
2022/03/22 11:03:24;;;;;;;;;16.33;15.00;;;;;21.39;60.36;102590.00;6334354;22;45265;-96
2022/03/22 11:05:52;;;;;;;;;19.00;15.67;;;;;21.50;61.59;102581.41;6335570;22;45451;-96
2022/03/22 11:08:19;;;;;;;;;15.33;15.33;;;;;21.59;60.54;102579.00;6336184;22;45363;-95
2022/03/22 11:10:45;;;;;;;;;20.33;16.33;;;;;21.62;58.90;102580.88;6339937;22;45208;-96
2022/03/22 11:13:11;;;;;;;;;17.00;15.33;;;;;21.66;59.53;102574.72;6338785;22;45263;-96
2022/03/22 11:15:39;;;;;;;;;20.00;17.67;;;;;21.80;58.96;102568.88;6336876;22;45388;-96
2022/03/22 11:18:07;;;;;;;;;19.00;19.00;;;;;21.77;59.06;102567.94;6337804;22;45366;-93
2022/03/22 11:20:34;;;;;;;;;16.67;15.67;;;;;21.88;59.07;102572.66;6356844;22;45395;-93
2022/03/22 11:23:00;;;;;;;;;17.67;15.33;;;;;22.02;59.35;102567.72;6334342;22;45751;-95
2022/03/22 11:25:28;;;;;;;;;20.67;17.33;;;;;22.12;57.62;102570.63;6334188;22;45331;-96
2022/03/22 11:28:03;;;;;;;;;19.67;17.67;;;;;22.28;59.39;102572.84;6333608;22;45416;-95
2022/03/22 11:30:29;;;;;;;;;13.00;12.33;;;;;22.26;58.80;102555.84;6357762;22;45432;-90
2022/03/22 11:35:57;;;;;;;;;19.67;16.00;;;;;22.56;58.07;102553.88;6361937;22;44998;-90
2022/03/22 11:38:46;;;;;;;;;17.00;17.00;;;;;22.80;58.24;102559.81;6362094;22;45021;-91
2022/03/22 11:44:27;;;;;;;;;16.00;15.00;;;;;22.87;56.97;102541.25;6340816;22;45302;-90
2022/03/22 11:47:14;;;;;;;;;17.33;15.00;;;;;22.99;56.63;102547.72;6358818;22;47290;-89
2022/03/22 11:50:07;;;;;;;;;21.00;20.33;;;;;23.07;56.43;102545.22;6355016;22;45404;-87
2022/03/22 11:52:33;;;;;;;;;14.33;14.33;;;;;23.11;55.46;102541.75;6352428;22;45570;-89
2022/03/22 11:55:05;;;;;;;;;18.33;17.33;;;;;23.28;54.89;102541.19;6332400;22;45650;-88
2022/03/22 11:57:41;;;;;;;;;18.67;15.33;;;;;23.37;53.52;102529.78;6331187;22;45664;-88
2022/03/22 12:00:07;;;;;;;;;16.33;15.67;;;;;23.41;56.05;102523.59;6329222;22;45555;-88
2022/03/22 12:02:37;;;;;;;;;20.33;19.67;;;;;23.67;55.48;102528.59;6357342;22;45342;-88
2022/03/22 12:05:03;;;;;;;;;16.67;16.00;;;;;23.77;55.64;102524.31;6331595;22;45173;-89
2022/03/22 12:07:32;;;;;;;;;19.33;16.67;;;;;23.97;55.11;102519.28;6330877;22;47060;-88
2022/03/22 12:10:08;;;;;;;;;20.00;18.33;;;;;24.17;53.93;102520.53;6331031;22;45339;-89
2022/03/22 12:12:35;;;;;;;;;19.00;14.67;;;;;24.19;54.01;102502.66;6331898;22;45431;-89
2022/03/22 12:15:03;;;;;;;;;24.67;19.67;;;;;24.30;53.74;102501.06;6356498;22;45387;-89
2022/03/22 12:17:29;;;;;;;;;17.00;15.67;;;;;24.50;55.90;102499.59;6357086;22;47069;-88
2022/03/22 12:20:11;;;;;;;;;20.33;20.33;;;;;24.87;55.77;102501.88;6331945;22;45307;-89
2022/03/22 12:22:45;;;;;;;;;23.33;19.00;;;;;25.13;54.43;102504.03;6332784;22;45277;-89
2022/03/22 12:25:13;;;;;;;;;28.33;21.00;;;;;25.33;54.94;102496.19;6331605;22;45306;-89
2022/03/22 12:27:52;;;;;;;;;22.00;21.25;;;;;25.70;54.49;102485.78;6355195;22;47440;-92
2022/03/22 12:30:20;;;;;;;;;23.50;19.50;;;;;25.94;54.63;102486.94;6332196;22;45425;-92
2022/03/22 12:32:48;;;;;;;;;21.00;17.33;;;;;26.28;55.22;102486.31;6333309;22;45305;-93
2022/03/22 12:35:13;;;;;;;;;23.00;22.00;;;;;26.61;54.93;102476.66;6331960;22;45282;-92
2022/03/22 12:37:39;;;;;;;;;23.67;21.33;;;;;26.97;55.03;102475.91;6333037;22;46052;-93
2022/03/22 12:40:05;;;;;;;;;19.00;17.00;;;;;27.50;54.82;102477.88;6332124;22;45172;-91
2022/03/22 12:42:31;;;;;;;;;19.00;18.00;;;;;28.52;54.82;102477.88;6332079;22;45119;-90
2022/03/22 12:44:57;;;;;;;;;19.67;18.67;;;;;30.73;56.40;102470.81;6331516;22;45159;-91
2022/03/22 12:47:23;;;;;;;;;25.00;23.33;;;;;33.52;54.23;102463.97;6356530;22;47160;-92
2022/03/22 12:49:48;;;;;;;;;23.67;19.00;;;;;36.30;53.90;102470.09;6331034;22;45325;-91
2022/03/22 12:52:14;;;;;;;;;17.33;16.67;;;;;38.75;52.32;102454.41;6330710;22;45442;-91
2022/03/22 12:54:41;;;;;;;;;18.67;17.00;;;;;40.98;48.74;102470.28;6355826;22;45644;-93
2022/03/22 12:57:16;;;;;;;;;22.67;22.67;;;;;42.75;43.19;102457.75;6356339;22;46974;-92
2022/03/22 12:59:42;;;;;;;;;21.00;18.33;;;;;44.10;41.68;102467.91;6354794;22;45337;-93
2022/03/22 13:02:09;;;;;;;;;15.00;12.00;;;;;45.29;40.33;102467.47;6333038;22;45295;-92
2022/03/22 13:04:37;;;;;;;;;19.67;19.67;;;;;46.50;38.66;102465.38;6331828;22;45200;-91
2022/03/22 13:07:05;;;;;;;;;20.33;18.00;;;;;47.37;38.47;102453.50;6332030;22;45512;-92
2022/03/22 13:12:19;;;;;;;;;20.33;19.33;;;;;48.29;34.47;102445.38;6333645;22;45319;-95
2022/03/22 13:15:04;;;;;;;;;22.33;19.00;;;;;48.59;31.47;102442.69;6331361;22;45698;-91
2022/03/22 13:17:34;;;;;;;;;17.67;16.33;;;;;48.78;31.67;102445.63;6333517;22;45539;-91
2022/03/22 13:20:05;;;;;;;;;18.67;17.67;;;;;48.71;31.55;102439.78;6330729;22;46129;-91
2022/03/22 13:22:30;;;;;;;;;21.00;16.33;;;;;48.86;30.37;102438.31;6333444;22;45276;-91
2022/03/22 13:25:08;;;;;;;;;18.00;17.33;;;;;48.82;29.68;102427.59;6332895;22;45517;-95
2022/03/22 13:27:33;;;;;;;;;24.00;19.00;;;;;48.51;29.64;102431.34;6331682;22;47445;-93
2022/03/22 13:30:01;;;;;;;;;21.33;18.67;;;;;48.54;31.37;102425.53;6357011;22;45462;-92
2022/03/22 13:32:31;;;;;;;;;17.33;17.00;;;;;47.01;29.11;102423.25;6358186;22;45386;-90
2022/03/22 13:35:02;;;;;;;;;18.00;15.33;;;;;44.37;30.35;102430.06;6332770;22;45303;-92
2022/03/22 13:37:28;;;;;;;;;17.33;17.33;;;;;41.97;30.14;102423.09;6333290;22;45359;-92
2022/03/22 13:40:05;;;;;;;;;19.67;19.67;;;;;39.86;30.43;102417.78;6357282;22;45864;-91
2022/03/22 13:42:30;;;;;;;;;18.33;16.67;;;;;37.98;32.05;102414.09;6331410;22;45242;-91
2022/03/22 13:44:58;;;;;;;;;19.33;18.00;;;;;36.99;32.77;102406.41;6332786;22;45338;-92
2022/03/22 13:47:35;;;;;;;;;19.00;16.67;;;;;36.35;33.44;102401.59;6333185;22;45726;-92
2022/03/22 13:50:11;;;;;;;;;19.33;18.00;;;;;36.32;34.49;102402.59;6356951;22;45419;-92
2022/03/22 13:52:36;;;;;;;;;18.33;16.67;;;;;37.66;34.34;102399.97;6357858;22;45389;-92
2022/03/22 13:55:32;;;;;;;;;21.00;20.67;;;;;40.24;34.06;102395.59;6332777;22;45363;-91
2022/03/22 13:58:00;;;;;;;;;19.67;16.67;;;;;41.41;33.43;102399.00;6331590;22;47963;-91
2022/03/22 14:00:30;;;;;;;;;19.33;16.67;;;;;43.00;32.23;102378.78;6330056;22;45339;-91
2022/03/22 14:02:56;;;;;;;;;18.00;16.67;;;;;44.94;31.80;102380.56;6333511;22;45413;-92
2022/03/22 14:05:22;;;;;;;;;19.00;17.33;;;;;46.69;29.86;102381.44;6333764;22;45408;-95
2022/03/22 14:07:56;;;;;;;;;17.33;17.33;;;;;47.69;31.23;102384.91;6330686;22;47163;-91
2022/03/22 14:10:22;;;;;;;;;20.00;17.67;;;;;48.18;30.76;102379.59;6357443;22;45670;-91
2022/03/22 14:12:47;;;;;;;;;15.00;14.00;;;;;48.51;30.54;102382.13;6334294;22;45315;-91
2022/03/22 14:15:14;;;;;;;;;20.67;17.67;;;;;49.52;30.17;102367.09;6357211;22;45340;-93
2022/03/22 14:17:39;;;;;;;;;18.00;16.67;;;;;50.03;27.27;102380.69;6334321;22;45268;-89
2022/03/22 14:20:06;;;;;;;;;17.67;17.00;;;;;49.59;27.10;102382.16;6331696;22;45392;-92
2022/03/22 14:22:32;;;;;;;;;16.67;14.33;;;;;49.49;28.31;102381.31;6333889;22;45299;-93
2022/03/22 14:24:57;;;;;;;;;18.67;17.00;;;;;49.77;27.68;102367.44;6357703;22;45213;-93
2022/03/22 14:27:22;;;;;;;;;19.00;16.33;;;;;50.03;27.71;102369.53;6333341;22;46184;-92
2022/03/22 14:29:49;;;;;;;;;18.00;18.00;;;;;50.47;26.89;102358.66;6333251;22;45287;-93
2022/03/22 14:32:15;;;;;;;;;19.33;13.67;;;;;51.14;25.68;102367.63;6332528;22;45302;-93
2022/03/22 14:37:24;;;;;;;;;16.00;14.67;;;;;52.77;26.48;102358.41;6333299;22;45698;-92
2022/03/22 14:39:49;;;;;;;;;18.67;17.00;;;;;53.73;25.96;102359.63;6357862;22;45399;-93
2022/03/22 14:42:15;;;;;;;;;17.33;15.00;;;;;54.23;25.31;102352.81;6357464;22;45617;-93
2022/03/22 14:44:42;;;;;;;;;15.33;15.33;;;;;54.02;23.84;102361.94;6333164;22;45395;-94
2022/03/22 14:47:10;;;;;;;;;17.00;16.00;;;;;52.94;24.71;102356.47;6331644;22;48159;-94
2022/03/22 14:49:36;;;;;;;;;16.67;15.33;;;;;50.25;23.38;102352.50;6330955;22;45394;-93
2022/03/22 14:54:46;;;;;;;;;15.67;15.67;;;;;43.50;25.70;102349.59;6333760;22;45350;-94
2022/03/22 14:59:55;;;;;;;;;15.67;15.67;;;;;38.47;27.86;102342.41;6333101;22;45343;-93
2022/03/22 15:02:20;;;;;;;;;18.67;18.33;;;;;36.69;28.65;102341.06;6333016;22;45267;-93
2022/03/22 15:04:48;;;;;;;;;11.67;11.67;;;;;35.03;28.00;102339.78;6333348;22;45191;-95
2022/03/22 15:07:15;;;;;;;;;15.00;15.00;;;;;33.55;29.15;102335.97;6334027;22;45406;-91
2022/03/22 15:09:41;;;;;;;;;19.00;19.00;;;;;32.26;30.04;102335.41;6333363;22;45299;-92
2022/03/22 15:12:10;;;;;;;;;17.67;17.67;;;;;31.12;30.98;102344.69;6358126;22;45380;-94
2022/03/22 15:14:37;;;;;;;;;18.00;18.00;;;;;30.23;31.50;102331.44;6333231;22;45256;-93
2022/03/22 15:17:03;;;;;;;;;21.33;17.00;;;;;29.45;32.62;102343.13;6358293;22;46188;-93
2022/03/22 15:19:28;;;;;;;;;20.67;17.33;;;;;28.78;33.23;102329.19;6357425;22;45397;-93
2022/03/22 15:21:54;;;;;;;;;23.67;18.67;;;;;28.25;33.92;102336.59;6336247;22;45354;-94
2022/03/22 15:24:19;;;;;;;;;23.00;19.00;;;;;27.70;34.48;102324.19;6338916;22;45322;-92
2022/03/22 15:26:44;;;;;;;;;18.67;18.67;;;;;27.19;34.96;102336.78;6375295;22;47150;-93
2022/03/22 15:29:11;;;;;;;;;19.00;17.00;;;;;26.76;35.08;102332.19;6370199;22;45423;-88
2022/03/22 15:31:37;;;;;;;;;19.00;18.67;;;;;26.31;35.59;102330.25;6336399;22;45277;-88
2022/03/22 15:34:02;;;;;;;;;20.00;18.67;;;;;25.92;37.02;102317.50;6333090;22;45252;-89
2022/03/22 15:36:28;;;;;;;;;18.00;17.67;;;;;25.62;37.09;102319.94;6357162;22;47163;-90
2022/03/22 15:38:53;;;;;;;;;21.00;21.00;;;;;25.37;37.88;102311.72;6333016;22;45251;-90
2022/03/22 15:41:18;;;;;;;;;17.33;17.00;;;;;25.08;38.15;102309.66;6331946;22;45660;-87
2022/03/22 15:43:44;;;;;;;;;24.00;21.00;;;;;24.89;38.31;102321.09;6329631;22;45259;-88
2022/03/22 15:46:10;;;;;;;;;25.33;23.33;;;;;24.68;38.69;102319.09;6329297;22;48235;-87
2022/03/22 15:48:37;;;;;;;;;20.00;17.67;;;;;24.52;39.32;102316.22;6333354;22;45376;-88
2022/03/22 15:51:03;;;;;;;;;23.33;19.00;;;;;24.32;39.36;102313.31;6330545;22;45465;-88
2022/03/22 15:53:30;;;;;;;;;18.67;18.00;;;;;24.19;39.76;102310.44;6330762;22;45418;-89
2022/03/22 15:55:55;;;;;;;;;27.00;23.00;;;;;24.07;40.18;102305.78;6332870;22;45550;-88
2022/03/22 15:58:20;;;;;;;;;23.00;23.00;;;;;23.96;40.42;102318.16;6333017;22;45292;-89
2022/03/22 16:00:46;;;;;;;;;23.33;20.33;;;;;23.82;40.40;102316.19;6332457;22;45717;-90
2022/03/22 16:03:11;;;;;;;;;21.67;20.33;;;;;23.65;40.43;102316.84;6331127;22;45546;-89
2022/03/22 16:05:36;;;;;;;;;26.00;21.33;;;;;23.47;40.79;102303.09;6332302;22;46766;-88
2022/03/22 16:08:03;;;;;;;;;20.00;19.33;;;;;23.40;41.15;102302.13;6330465;22;46064;-90
2022/03/22 16:10:28;;;;;;;;;22.67;20.67;;;;;23.17;41.82;102306.19;6356629;22;45246;-91
2022/03/22 16:12:54;;;;;;;;;22.67;21.33;;;;;23.13;41.65;102312.38;6331759;22;45139;-91
2022/03/22 16:15:19;;;;;;;;;20.33;18.67;;;;;23.02;42.12;102306.81;6355896;22;48390;-91
2022/03/22 16:17:45;;;;;;;;;23.00;17.67;;;;;22.95;42.10;102310.25;6334460;22;45377;-90
2022/03/22 16:20:13;;;;;;;;;27.67;25.00;;;;;22.93;42.69;102314.69;6331389;22;45229;-91
2022/03/22 16:22:39;;;;;;;;;22.00;18.00;;;;;22.83;43.32;102313.63;6357772;22;45634;-89
2022/03/22 16:25:09;;;;;;;;;24.25;23.00;;;;;22.66;42.87;102316.81;6333317;22;45443;-91
2022/03/22 16:27:40;;;;;;;;;20.00;18.33;;;;;22.58;43.36;102313.09;6351452;22;45370;-90
2022/03/22 16:30:06;;;;;;;;;22.75;19.50;;;;;22.52;43.60;102317.44;6330754;22;45365;-89
2022/03/22 16:37:59;;;;;;;;;20.00;19.00;;;;;22.27;44.70;102314.25;6330602;22;45309;-89
2022/03/22 16:40:25;;;;;;;;;23.25;22.00;;;;;22.26;44.94;102317.81;6356114;22;45481;-91
2022/03/22 16:42:51;;;;;;;;;23.00;17.75;;;;;22.17;45.34;102317.59;6329125;22;45351;-91
2022/03/22 16:45:18;;;;;;;;;18.33;17.33;;;;;22.15;45.21;102314.00;6330650;22;45311;-90
2022/03/22 16:47:43;;;;;;;;;21.00;20.75;;;;;22.06;45.52;102312.03;6350378;22;45738;-88
2022/03/22 16:50:09;;;;;;;;;26.75;23.75;;;;;21.95;45.94;102320.72;6327665;22;45319;-90
2022/03/22 16:52:37;;;;;;;;;28.75;25.50;;;;;21.88;46.12;102319.66;6331882;22;45284;-90
2022/03/22 16:55:02;;;;;;;;;22.50;21.00;;;;;21.85;46.25;102322.22;6331511;22;45239;-90
2022/03/22 16:57:28;;;;;;;;;22.00;22.00;;;;;21.83;46.92;102326.63;6355831;22;45444;-91
2022/03/22 16:59:55;;;;;;;;;25.25;23.25;;;;;21.79;46.82;102319.41;6329291;22;45301;-90
2022/03/22 17:02:20;;;;;;;;;21.50;21.50;;;;;21.72;47.54;102323.72;6356447;22;45617;-90
2022/03/22 17:04:48;;;;;;;;;25.75;24.50;;;;;21.72;47.71;102330.84;6328905;22;47308;-90
2022/03/22 17:07:13;;;;;;;;;22.00;19.00;;;;;21.63;47.51;102323.47;6330513;22;45649;-89
2022/03/22 17:09:39;;;;;;;;;26.25;24.75;;;;;21.61;47.90;102339.50;6356356;22;45320;-90
2022/03/22 17:12:04;;;;;;;;;26.00;23.75;;;;;21.54;48.15;102333.06;6332829;22;45244;-90
2022/03/22 17:14:32;;;;;;;;;24.50;21.75;;;;;21.50;48.20;102330.28;6356170;22;48336;-89
2022/03/22 17:16:58;;;;;;;;;28.00;23.75;;;;;21.44;48.53;102336.41;6331294;22;45420;-92
2022/03/22 17:19:25;;;;;;;;;20.25;16.75;;;;;21.38;48.01;102336.25;6333135;22;45263;-90
2022/03/22 17:21:51;;;;;;;;;25.25;21.50;;;;;21.26;48.82;102336.84;6332803;22;45546;-92
2022/03/22 17:24:16;;;;;;;;;17.25;16.75;;;;;21.24;48.57;102339.44;6330683;22;48195;-91
2022/03/22 17:26:42;;;;;;;;;25.00;21.50;;;;;21.19;49.02;102335.75;6357480;22;45379;-90
2022/03/22 17:29:07;;;;;;;;;28.00;22.25;;;;;21.15;49.08;102337.44;6332575;22;45315;-91
2022/03/22 17:31:35;;;;;;;;;24.25;23.25;;;;;21.06;49.15;102338.09;6329407;22;45367;-91
2022/03/22 17:34:00;;;;;;;;;26.00;21.50;;;;;21.02;49.50;102340.66;6332649;22;46075;-90
2022/03/22 17:36:27;;;;;;;;;24.00;22.00;;;;;21.02;49.47;102346.91;6330345;22;45355;-90
2022/03/22 17:38:55;;;;;;;;;28.25;23.75;;;;;20.91;49.74;102330.53;6332120;22;45275;-89
2022/03/22 17:41:21;;;;;;;;;23.50;22.50;;;;;20.89;49.34;102345.63;6357991;22;45328;-90
2022/03/22 17:43:52;;;;;;;;;20.33;17.67;;;;;20.90;49.04;102344.72;6360041;22;47334;-89
2022/03/22 17:46:20;;;;;;;;;20.67;20.67;;;;;20.81;49.36;102345.41;6355776;22;45410;-90
2022/03/22 17:48:46;;;;;;;;;26.00;23.25;;;;;20.70;49.84;102333.50;6332648;22;45311;-90
2022/03/22 17:51:12;;;;;;;;;24.75;21.50;;;;;20.75;49.86;102339.88;6356225;22;45469;-91
2022/03/22 17:53:39;;;;;;;;;27.00;23.00;;;;;20.72;50.38;102347.81;6355902;22;47093;-90
2022/03/22 17:56:05;;;;;;;;;23.75;22.75;;;;;20.67;50.24;102346.78;6356590;22;45342;-90
2022/03/22 17:58:32;;;;;;;;;25.50;24.00;;;;;20.65;50.93;102358.31;6332826;22;45321;-90
2022/03/22 18:01:23;;;;;;;;;31.75;25.50;;;;;20.62;50.64;102360.88;6358238;22;45302;-90
2022/03/22 18:11:54;;;;;;;;;34.00;31.00;;;;;20.29;52.19;102349.25;6311521;22;46443;-87